Time;durP1;ratioP1;P1;durP2;ratioP2;P2;SDS_P1;SDS_P2;PMS_P1;PMS_P2;Temp;Humidity;BMP_temperature;BMP_pressure;BME280_temperature;BME280_humidity;BME280_pressure;Samples;Min_cycle;Max_cycle;Signal;HPM_P1;HPM_P2
2022/03/16 00:01:45;;;;;;;;;;;5.60;99.90;;;;;;5043037;28;20276;-81
2022/03/16 00:04:11;;;;;;;;;;;5.60;99.90;;;;;;5059987;28;19916;-81
2022/03/16 00:06:37;;;;;;;;;;;5.60;99.90;;;;;;5042893;28;20016;-81
2022/03/16 00:09:02;;;;;;;;;;;5.60;99.90;;;;;;5054534;28;20353;-81
2022/03/16 00:11:28;;;;;;;;;;;5.60;99.90;;;;;;5063788;28;19913;-81
2022/03/16 00:13:53;;;;;;;;;;;5.60;99.90;;;;;;5063409;28;19998;-81
2022/03/16 00:16:19;;;;;;;;;;;5.60;99.90;;;;;;5050571;28;19964;-81
2022/03/16 00:18:44;;;;;;;;;;;5.60;99.90;;;;;;5053916;28;19914;-81
2022/03/16 00:21:10;;;;;;;;;;;5.60;99.90;;;;;;5037708;28;19928;-81
2022/03/16 00:23:35;;;;;;;;;;;5.60;99.90;;;;;;5050023;28;19927;-81
2022/03/16 00:26:01;;;;;;;;;;;5.50;99.90;;;;;;5027996;28;19921;-81
2022/03/16 00:28:26;;;;;;;;;;;5.50;99.90;;;;;;5035361;28;19943;-81
2022/03/16 00:30:52;;;;;;;;;;;5.50;99.90;;;;;;5048369;28;20023;-81
2022/03/16 00:33:20;;;;;;;;;;;5.50;99.90;;;;;;5037783;28;20387;-81
2022/03/16 00:35:46;;;;;;;;;;;5.40;99.90;;;;;;5040648;28;19917;-81
2022/03/16 00:38:14;;;;;;;;;;;5.40;99.90;;;;;;5036945;28;19925;-81
2022/03/16 00:40:40;;;;;;;;;;;5.40;99.90;;;;;;5054444;28;19917;-81
2022/03/16 00:43:05;;;;;;;;;;;5.30;99.90;;;;;;5065979;28;19912;-81
2022/03/16 00:45:31;;;;;;;;;;;5.30;99.90;;;;;;5039027;28;20015;-81
2022/03/16 00:47:56;;;;;;;;;;;5.30;99.90;;;;;;5058629;28;20010;-81
2022/03/16 00:50:22;;;;;;;;;;;5.20;99.90;;;;;;5065770;28;20223;-81
2022/03/16 00:52:47;;;;;;;;;;;5.30;99.90;;;;;;5041221;28;19917;-81
2022/03/16 00:55:13;;;;;;;;;;;5.20;99.90;;;;;;5066623;28;20003;-81
2022/03/16 00:57:38;;;;;;;;;;;5.20;99.90;;;;;;5033445;28;19921;-81
2022/03/16 01:00:05;;;;;;;;;;;5.20;99.90;;;;;;5042202;28;20370;-81
2022/03/16 01:02:31;;;;;;;;;;;5.20;99.90;;;;;;5061158;28;19916;-80
2022/03/16 01:04:57;;;;;;;;;;;5.20;99.90;;;;;;5067874;28;20307;-81
2022/03/16 01:07:23;;;;;;;;;;;5.20;99.90;;;;;;5055032;28;20329;-81
2022/03/16 01:09:48;;;;;;;;;;;5.10;99.90;;;;;;5050675;28;19970;-81
2022/03/16 01:12:14;;;;;;;;;;;5.10;99.90;;;;;;5034399;28;19924;-81
2022/03/16 01:14:39;;;;;;;;;;;5.10;99.90;;;;;;5063897;28;19920;-81
2022/03/16 01:17:05;;;;;;;;;;;5.10;99.90;;;;;;5047889;28;19917;-81
2022/03/16 01:19:31;;;;;;;;;;;5.10;99.90;;;;;;5063300;28;19920;-81
2022/03/16 01:21:57;;;;;;;;;;;5.10;99.90;;;;;;5061846;28;19913;-81
2022/03/16 01:24:22;;;;;;;;;;;5.00;99.90;;;;;;5067962;28;19917;-81
2022/03/16 01:26:48;;;;;;;;;;;5.00;99.90;;;;;;5041204;28;19944;-81
2022/03/16 01:29:13;;;;;;;;;;;5.00;99.90;;;;;;5043849;28;19928;-81
2022/03/16 01:31:39;;;;;;;;;;;5.00;99.90;;;;;;5049161;28;20447;-81
2022/03/16 01:34:04;;;;;;;;;;;5.00;99.90;;;;;;5041956;28;19918;-81
2022/03/16 01:36:30;;;;;;;;;;;5.00;99.90;;;;;;5067041;28;19927;-81
2022/03/16 01:38:56;;;;;;;;;;;5.00;99.90;;;;;;5058460;28;20307;-81
2022/03/16 01:41:21;;;;;;;;;;;5.00;99.90;;;;;;5042682;28;19955;-81
2022/03/16 01:43:51;;;;;;;;;;;4.90;99.90;;;;;;5065895;28;20484;-81
2022/03/16 01:46:17;;;;;;;;;;;4.90;99.90;;;;;;5062454;28;19935;-81
2022/03/16 01:48:43;;;;;;;;;;;4.90;99.90;;;;;;5041789;28;19917;-81
2022/03/16 01:51:08;;;;;;;;;;;4.90;99.90;;;;;;5040179;28;20278;-81
2022/03/16 01:53:34;;;;;;;;;;;4.90;99.90;;;;;;5057357;28;19964;-81
2022/03/16 01:55:59;;;;;;;;;;;4.90;99.90;;;;;;5043926;28;20430;-81
2022/03/16 01:58:25;;;;;;;;;;;4.90;99.90;;;;;;5045738;28;19921;-81
2022/03/16 02:00:51;;;;;;;;;;;4.90;99.90;;;;;;5039708;28;19923;-81
2022/03/16 02:03:17;;;;;;;;;;;4.90;99.90;;;;;;5042760;28;20461;-81
2022/03/16 02:05:42;;;;;;;;;;;4.90;99.90;;;;;;5056862;28;19917;-81
2022/03/16 02:08:10;;;;;;;;;;;4.80;99.90;;;;;;5040076;28;20372;-81
2022/03/16 02:10:36;;;;;;;;;;;4.70;99.90;;;;;;5062320;28;20475;-81
2022/03/16 02:13:02;;;;;;;;;;;4.60;99.90;;;;;;5048941;28;19952;-81
2022/03/16 02:15:27;;;;;;;;;;;4.60;99.90;;;;;;5058850;28;19919;-81
2022/03/16 02:17:55;;;;;;;;;;;4.50;99.90;;;;;;5064206;28;19913;-81
2022/03/16 02:20:21;;;;;;;;;;;4.60;99.90;;;;;;5062650;28;19916;-81
2022/03/16 02:22:49;;;;;;;;;;;4.50;99.90;;;;;;5063277;28;20665;-81
2022/03/16 02:25:16;;;;;;;;;;;4.50;99.90;;;;;;5038798;28;20392;-81
2022/03/16 02:27:42;;;;;;;;;;;4.50;99.90;;;;;;5060565;28;20302;-81
2022/03/16 02:30:08;;;;;;;;;;;4.50;99.90;;;;;;5064877;28;19913;-81
2022/03/16 02:32:33;;;;;;;;;;;4.40;99.90;;;;;;5048756;28;19939;-81
2022/03/16 02:34:59;;;;;;;;;;;4.40;99.90;;;;;;5056315;28;19921;-81
2022/03/16 02:37:24;;;;;;;;;;;4.40;99.90;;;;;;5033422;28;20414;-81
2022/03/16 02:39:50;;;;;;;;;;;4.50;99.90;;;;;;5036579;28;19960;-81
2022/03/16 02:42:15;;;;;;;;;;;4.50;99.90;;;;;;5044141;28;19917;-81
2022/03/16 02:44:41;;;;;;;;;;;4.50;99.90;;;;;;5048666;28;19929;-80
2022/03/16 02:47:07;;;;;;;;;;;4.60;99.90;;;;;;5039618;28;19963;-81
2022/03/16 02:49:32;;;;;;;;;;;4.60;99.90;;;;;;5061260;28;20050;-81
2022/03/16 02:51:58;;;;;;;;;;;4.70;99.90;;;;;;5045954;28;19917;-81
2022/03/16 02:54:23;;;;;;;;;;;4.70;99.90;;;;;;5061980;28;19920;-81
2022/03/16 02:56:49;;;;;;;;;;;4.70;99.90;;;;;;5038619;28;19921;-81
2022/03/16 02:59:15;;;;;;;;;;;4.70;99.90;;;;;;5043948;28;19938;-81
2022/03/16 03:04:44;;;;;;;;;;;4.80;99.90;;;;;;5061874;28;19923;-81
2022/03/16 03:07:10;;;;;;;;;;;4.80;99.90;;;;;;5056967;28;19916;-81
2022/03/16 03:09:36;;;;;;;;;;;4.80;99.90;;;;;;5069581;28;19924;-81
2022/03/16 03:12:02;;;;;;;;;;;4.80;99.90;;;;;;5058849;28;20000;-81
2022/03/16 03:14:28;;;;;;;;;;;4.80;99.90;;;;;;5048428;28;19913;-81
2022/03/16 03:16:53;;;;;;;;;;;4.80;99.90;;;;;;5043939;28;19920;-80
2022/03/16 03:19:21;;;;;;;;;;;4.80;99.90;;;;;;5041996;28;19973;-81
2022/03/16 03:21:47;;;;;;;;;;;4.80;99.90;;;;;;5068512;28;19932;-81
2022/03/16 03:24:12;;;;;;;;;;;4.90;99.90;;;;;;5047541;28;19921;-81
2022/03/16 03:26:38;;;;;;;;;;;4.90;99.90;;;;;;5034276;28;19920;-81
2022/03/16 03:29:03;;;;;;;;;;;4.90;99.90;;;;;;5043666;28;19925;-81
2022/03/16 03:31:29;;;;;;;;;;;4.90;99.90;;;;;;5035961;28;19921;-81
2022/03/16 03:33:54;;;;;;;;;;;4.90;99.90;;;;;;5041796;28;19916;-81
2022/03/16 03:36:20;;;;;;;;;;;5.00;99.90;;;;;;5038734;28;20295;-81
2022/03/16 03:38:46;;;;;;;;;;;5.00;99.90;;;;;;5051233;28;19921;-81
2022/03/16 03:41:11;;;;;;;;;;;5.00;99.90;;;;;;5028286;28;19921;-81
2022/03/16 03:43:37;;;;;;;;;;;5.00;99.90;;;;;;5046991;28;19932;-81
2022/03/16 03:46:02;;;;;;;;;;;5.00;99.90;;;;;;5033802;28;19950;-81
2022/03/16 03:48:28;;;;;;;;;;;5.00;99.90;;;;;;5046860;28;19943;-81
2022/03/16 03:50:53;;;;;;;;;;;5.00;99.90;;;;;;5042761;28;20310;-81
2022/03/16 03:53:19;;;;;;;;;;;5.00;99.90;;;;;;5039561;28;20133;-81
2022/03/16 03:55:44;;;;;;;;;;;5.10;99.90;;;;;;5044464;28;19917;-81
2022/03/16 03:58:10;;;;;;;;;;;5.10;99.90;;;;;;5046089;28;19924;-81
2022/03/16 04:00:35;;;;;;;;;;;5.10;99.90;;;;;;5040957;28;19959;-81
2022/03/16 04:03:01;;;;;;;;;;;5.10;99.90;;;;;;5049304;28;19978;-81
2022/03/16 04:05:26;;;;;;;;;;;5.10;99.90;;;;;;5062058;28;19952;-81
2022/03/16 04:07:52;;;;;;;;;;;5.10;99.90;;;;;;5044777;28;19925;-81
2022/03/16 04:10:17;;;;;;;;;;;5.10;99.90;;;;;;5043827;28;19924;-81
2022/03/16 04:12:43;;;;;;;;;;;5.10;99.90;;;;;;5070641;28;19912;-81
2022/03/16 04:15:09;;;;;;;;;;;5.10;99.90;;;;;;5065861;28;19917;-81
2022/03/16 04:17:35;;;;;;;;;;;5.10;99.90;;;;;;5046596;28;20013;-81
2022/03/16 04:20:00;;;;;;;;;;;5.10;99.90;;;;;;5059947;28;19913;-81
2022/03/16 04:22:26;;;;;;;;;;;5.10;99.90;;;;;;5041898;28;19916;-81
2022/03/16 04:24:52;;;;;;;;;;;5.10;99.90;;;;;;5056614;28;20011;-80
2022/03/16 04:27:18;;;;;;;;;;;5.10;99.90;;;;;;5051880;28;19955;-81
2022/03/16 04:29:43;;;;;;;;;;;5.10;99.90;;;;;;5061869;28;19913;-81
2022/03/16 04:32:09;;;;;;;;;;;5.10;99.90;;;;;;5061230;28;20610;-81
2022/03/16 04:34:34;;;;;;;;;;;5.10;99.90;;;;;;5036009;28;19947;-81
2022/03/16 04:37:00;;;;;;;;;;;5.10;99.90;;;;;;5053176;23;19925;-84
2022/03/16 04:39:25;;;;;;;;;;;5.10;99.90;;;;;;5064006;28;19916;-84
2022/03/16 04:41:51;;;;;;;;;;;5.00;99.90;;;;;;5064457;28;19978;-84
2022/03/16 04:44:16;;;;;;;;;;;5.00;99.90;;;;;;5056994;28;19934;-84
2022/03/16 04:46:42;;;;;;;;;;;5.00;99.90;;;;;;5060027;28;20288;-84
2022/03/16 04:49:07;;;;;;;;;;;5.00;99.90;;;;;;5036982;28;19917;-84
2022/03/16 04:51:33;;;;;;;;;;;5.00;99.90;;;;;;5039715;28;19917;-84
2022/03/16 04:53:58;;;;;;;;;;;5.00;99.90;;;;;;5062419;28;19991;-84
2022/03/16 04:56:24;;;;;;;;;;;4.90;99.90;;;;;;5039646;28;19917;-84
2022/03/16 04:58:49;;;;;;;;;;;5.00;99.90;;;;;;5069710;28;20419;-84
2022/03/16 05:01:15;;;;;;;;;;;4.90;99.90;;;;;;5042521;28;19921;-84
2022/03/16 05:03:40;;;;;;;;;;;4.90;99.90;;;;;;5040815;28;20152;-84
2022/03/16 05:06:05;;;;;;;;;;;4.90;99.90;;;;;;5061656;28;19912;-84
2022/03/16 05:08:35;;;;;;;;;;;4.90;99.90;;;;;;5043222;28;19917;-84
2022/03/16 05:11:01;;;;;;;;;;;4.90;99.90;;;;;;5061361;28;19917;-84
2022/03/16 05:13:27;;;;;;;;;;;4.90;99.90;;;;;;5060454;28;19912;-84
2022/03/16 05:15:52;;;;;;;;;;;4.90;99.90;;;;;;5056913;28;20350;-84
2022/03/16 05:18:18;;;;;;;;;;;4.90;99.90;;;;;;5038495;28;19921;-85
2022/03/16 05:20:43;;;;;;;;;;;4.90;99.90;;;;;;5059211;28;20454;-85
2022/03/16 05:23:09;;;;;;;;;;;4.80;99.90;;;;;;5037625;28;19931;-84
2022/03/16 05:25:35;;;;;;;;;;;4.90;99.90;;;;;;5062110;28;20023;-84
2022/03/16 05:28:01;;;;;;;;;;;4.80;99.90;;;;;;5034670;28;20366;-84
2022/03/16 05:30:27;;;;;;;;;;;4.80;99.90;;;;;;5057104;28;19988;-85
2022/03/16 05:32:55;;;;;;;;;;;4.80;99.90;;;;;;5061277;28;19913;-84
2022/03/16 05:35:21;;;;;;;;;;;4.80;99.90;;;;;;5063304;28;20533;-84
2022/03/16 05:37:46;;;;;;;;;;;4.80;99.90;;;;;;5068858;28;19962;-84
2022/03/16 05:40:12;;;;;;;;;;;4.80;99.90;;;;;;5052763;28;19916;-83
2022/03/16 05:42:37;;;;;;;;;;;4.80;99.90;;;;;;5067572;28;19924;-84
2022/03/16 05:45:03;;;;;;;;;;;4.80;99.90;;;;;;5052060;28;19927;-84
2022/03/16 05:47:29;;;;;;;;;;;4.80;99.90;;;;;;5058531;28;20321;-84
2022/03/16 05:49:55;;;;;;;;;;;4.80;99.90;;;;;;5054265;28;19940;-84
2022/03/16 05:52:21;;;;;;;;;;;4.80;99.90;;;;;;5066579;28;19928;-84
2022/03/16 05:54:51;;;;;;;;;;;4.80;99.90;;;;;;5065507;28;19912;-85
2022/03/16 05:57:17;;;;;;;;;;;4.80;99.90;;;;;;5061768;28;20330;-84
2022/03/16 05:59:43;;;;;;;;;;;4.80;99.90;;;;;;5062588;28;20488;-83
2022/03/16 06:02:09;;;;;;;;;;;4.80;99.90;;;;;;5058694;28;20125;-84
2022/03/16 06:04:35;;;;;;;;;;;4.80;99.90;;;;;;5061782;28;19959;-84
2022/03/16 06:07:01;;;;;;;;;;;4.80;99.90;;;;;;5052724;28;20004;-84
2022/03/16 06:09:26;;;;;;;;;;;4.80;99.90;;;;;;5065643;28;20547;-84
2022/03/16 06:11:51;;;;;;;;;;;4.80;99.90;;;;;;5052423;28;19967;-84
2022/03/16 06:14:17;;;;;;;;;;;4.90;99.90;;;;;;5047354;28;19924;-84
2022/03/16 06:16:44;;;;;;;;;;;4.90;99.90;;;;;;5034094;28;19960;-84
2022/03/16 06:19:10;;;;;;;;;;;4.90;99.90;;;;;;5046350;28;20106;-84
2022/03/16 06:21:35;;;;;;;;;;;4.90;99.90;;;;;;5057857;28;19930;-84
2022/03/16 06:24:01;;;;;;;;;;;4.90;99.90;;;;;;5071096;28;19921;-84
2022/03/16 06:26:26;;;;;;;;;;;4.90;99.90;;;;;;5053682;28;19916;-84
2022/03/16 06:28:52;;;;;;;;;;;4.90;99.90;;;;;;5056563;28;19916;-83
2022/03/16 06:31:17;;;;;;;;;;;4.90;99.90;;;;;;5036899;28;19917;-83
2022/03/16 06:33:43;;;;;;;;;;;4.90;99.90;;;;;;5045819;28;19917;-84
2022/03/16 06:36:08;;;;;;;;;;;4.90;99.90;;;;;;5041101;28;20128;-83
2022/03/16 06:38:34;;;;;;;;;;;5.00;99.90;;;;;;5047916;28;19938;-83
2022/03/16 06:40:59;;;;;;;;;;;5.00;99.90;;;;;;5045193;28;19924;-84
2022/03/16 06:43:25;;;;;;;;;;;5.10;99.90;;;;;;5033461;28;19917;-83
2022/03/16 06:45:50;;;;;;;;;;;5.10;99.90;;;;;;5036912;28;19994;-84
2022/03/16 06:48:15;;;;;;;;;;;5.10;99.90;;;;;;5036319;28;19986;-84
2022/03/16 06:50:41;;;;;;;;;;;5.10;99.90;;;;;;5038240;28;20317;-84
2022/03/16 06:53:06;;;;;;;;;;;5.10;99.90;;;;;;5073405;28;19912;-83
2022/03/16 06:55:32;;;;;;;;;;;5.20;99.90;;;;;;5056742;28;19927;-84
2022/03/16 06:57:58;;;;;;;;;;;5.20;99.90;;;;;;5074858;28;19951;-83
2022/03/16 07:00:23;;;;;;;;;;;5.20;99.90;;;;;;5051107;28;19916;-84
2022/03/16 07:02:50;;;;;;;;;;;5.20;99.90;;;;;;5065519;28;19923;-83
2022/03/16 07:05:15;;;;;;;;;;;5.20;99.90;;;;;;5065155;28;20374;-83
2022/03/16 07:07:41;;;;;;;;;;;5.30;99.90;;;;;;5056495;28;19924;-84
2022/03/16 07:10:06;;;;;;;;;;;5.30;99.90;;;;;;5066641;28;19966;-84
2022/03/16 07:12:32;;;;;;;;;;;5.30;99.90;;;;;;5045806;28;19923;-84
2022/03/16 07:14:58;;;;;;;;;;;5.40;99.90;;;;;;5068896;28;19923;-83
2022/03/16 07:17:23;;;;;;;;;;;5.40;99.90;;;;;;5059206;28;19956;-84
2022/03/16 07:19:49;;;;;;;;;;;5.40;99.90;;;;;;5036525;28;19921;-84
2022/03/16 07:22:14;;;;;;;;;;;5.40;99.90;;;;;;5043800;28;19965;-84
2022/03/16 07:24:40;;;;;;;;;;;5.50;99.90;;;;;;5044865;28;19956;-84
2022/03/16 07:27:07;;;;;;;;;;;5.50;99.90;;;;;;5037744;28;19920;-83
2022/03/16 07:29:32;;;;;;;;;;;5.60;99.90;;;;;;5066481;28;19921;-83
2022/03/16 07:31:58;;;;;;;;;;;5.60;99.90;;;;;;5055031;28;19963;-84
2022/03/16 07:34:26;;;;;;;;;;;5.70;99.90;;;;;;5040750;28;19927;-84
2022/03/16 07:36:52;;;;;;;;;;;5.70;99.90;;;;;;5065360;28;19927;-83
2022/03/16 07:39:17;;;;;;;;;;;5.70;99.90;;;;;;5068061;28;20292;-83
2022/03/16 07:41:43;;;;;;;;;;;5.80;99.90;;;;;;5037036;28;19921;-83
2022/03/16 07:44:08;;;;;;;;;;;5.90;99.90;;;;;;5064227;28;20365;-83
2022/03/16 07:46:34;;;;;;;;;;;6.00;99.90;;;;;;5046103;28;19920;-83
2022/03/16 07:49:00;;;;;;;;;;;6.00;99.90;;;;;;5045314;28;20324;-83
2022/03/16 07:51:25;;;;;;;;;;;6.10;99.90;;;;;;5038069;28;19924;-84
2022/03/16 07:53:51;;;;;;;;;;;6.20;99.90;;;;;;5069116;28;19934;-84
2022/03/16 07:56:16;;;;;;;;;;;6.20;99.90;;;;;;5057537;28;20393;-83
2022/03/16 07:58:42;;;;;;;;;;;6.20;99.90;;;;;;5047937;28;19935;-83
2022/03/16 08:01:08;;;;;;;;;;;6.30;99.90;;;;;;5042130;28;19920;-83
2022/03/16 08:03:33;;;;;;;;;;;6.30;99.90;;;;;;5052379;28;19919;-83
2022/03/16 08:05:59;;;;;;;;;;;6.40;99.90;;;;;;5036127;28;20294;-83
2022/03/16 08:08:24;;;;;;;;;;;6.50;99.90;;;;;;5039424;28;20328;-83
2022/03/16 08:10:50;;;;;;;;;;;6.50;99.90;;;;;;5037383;28;20401;-82
2022/03/16 08:13:15;;;;;;;;;;;6.60;99.90;;;;;;5033960;28;19971;-83
2022/03/16 08:15:41;;;;;;;;;;;6.70;99.90;;;;;;5041830;28;19923;-83
2022/03/16 08:18:06;;;;;;;;;;;6.70;99.90;;;;;;5039223;28;19923;-83
2022/03/16 08:20:31;;;;;;;;;;;6.80;99.90;;;;;;5062287;28;19917;-83
2022/03/16 08:22:57;;;;;;;;;;;6.80;99.90;;;;;;5062260;28;19916;-83
2022/03/16 08:25:23;;;;;;;;;;;6.90;99.90;;;;;;5059412;28;20357;-83
2022/03/16 08:27:49;;;;;;;;;;;6.90;99.90;;;;;;5057876;28;19967;-83
2022/03/16 08:30:16;;;;;;;;;;;7.10;99.90;;;;;;5057326;28;20300;-83
2022/03/16 08:32:41;;;;;;;;;;;7.10;99.90;;;;;;5058443;28;20015;-84
2022/03/16 08:35:07;;;;;;;;;;;7.20;99.90;;;;;;5055189;28;20464;-84
2022/03/16 08:37:33;;;;;;;;;;;7.20;99.90;;;;;;5060590;28;19941;-83
2022/03/16 08:39:59;;;;;;;;;;;7.30;99.90;;;;;;5058567;28;20002;-83
2022/03/16 08:42:24;;;;;;;;;;;7.30;99.90;;;;;;5057622;28;20434;-83
2022/03/16 08:44:49;;;;;;;;;;;7.20;99.90;;;;;;5057904;28;19946;-84
2022/03/16 08:47:16;;;;;;;;;;;7.30;99.90;;;;;;5056529;28;19986;-83
2022/03/16 08:49:45;;;;;;;;;;;7.40;99.90;;;;;;5064858;28;19917;-83
2022/03/16 08:52:11;;;;;;;;;;;7.40;99.90;;;;;;5058906;28;19912;-83
2022/03/16 08:54:37;;;;;;;;;;;7.60;99.90;;;;;;5029929;28;19921;-83
2022/03/16 08:57:02;;;;;;;;;;;7.70;99.90;;;;;;5053280;28;19912;-83
2022/03/16 08:59:28;;;;;;;;;;;7.90;99.90;;;;;;5048668;28;19928;-83
2022/03/16 09:01:53;;;;;;;;;;;8.00;99.90;;;;;;5055042;28;20428;-84
2022/03/16 09:04:19;;;;;;;;;;;8.10;99.90;;;;;;5067404;28;19924;-83
2022/03/16 09:06:44;;;;;;;;;;;8.20;99.90;;;;;;5053801;28;20447;-83
2022/03/16 09:09:10;;;;;;;;;;;8.30;99.90;;;;;;5042586;28;19995;-84
2022/03/16 09:11:35;;;;;;;;;;;8.50;99.90;;;;;;5031987;28;20003;-83
2022/03/16 09:14:02;;;;;;;;;;;8.60;99.90;;;;;;5057875;28;20313;-83
2022/03/16 09:16:28;;;;;;;;;;;8.70;99.90;;;;;;5036894;28;19925;-83
2022/03/16 09:18:54;;;;;;;;;;;8.80;99.90;;;;;;5051932;28;19920;-83
2022/03/16 09:21:19;;;;;;;;;;;8.80;99.90;;;;;;5060227;28;19999;-84
2022/03/16 09:23:45;;;;;;;;;;;8.90;99.90;;;;;;5065392;28;19956;-84
2022/03/16 09:26:10;;;;;;;;;;;8.90;99.90;;;;;;5036982;28;19925;-83
2022/03/16 09:28:35;;;;;;;;;;;8.90;99.90;;;;;;5051418;28;19951;-84
2022/03/16 09:31:01;;;;;;;;;;;8.90;99.90;;;;;;5062038;28;19948;-83
2022/03/16 09:33:30;;;;;;;;;;;8.90;99.90;;;;;;5056292;28;20015;-83
2022/03/16 09:35:56;;;;;;;;;;;8.90;99.90;;;;;;5052544;28;20301;-84
2022/03/16 09:38:21;;;;;;;;;;;9.00;99.90;;;;;;5068704;28;19921;-84
2022/03/16 09:40:54;;;;;;;;;;;9.10;99.90;;;;;;5062363;28;19979;-84
2022/03/16 09:43:19;;;;;;;;;;;9.10;99.90;;;;;;5052244;28;20040;-84
2022/03/16 09:45:52;;;;;;;;;;;9.20;99.90;;;;;;5069779;28;19959;-84
2022/03/16 09:48:19;;;;;;;;;;;9.30;99.90;;;;;;5061892;28;19952;-84
2022/03/16 09:50:44;;;;;;;;;;;9.30;99.90;;;;;;5054188;28;19962;-85
2022/03/16 09:53:11;;;;;;;;;;;9.40;99.90;;;;;;5053841;28;19912;-85
2022/03/16 09:55:37;;;;;;;;;;;9.40;99.90;;;;;;5062249;28;19917;-84
2022/03/16 09:58:03;;;;;;;;;;;9.50;99.90;;;;;;5043430;28;19913;-84
2022/03/16 10:00:30;;;;;;;;;;;9.50;99.90;;;;;;5065937;28;20057;-84
2022/03/16 10:03:00;;;;;;;;;;;9.60;99.90;;;;;;5063513;28;20353;-84
2022/03/16 10:05:26;;;;;;;;;;;9.70;99.90;;;;;;5056517;28;19917;-85
2022/03/16 10:07:57;;;;;;;;;;;9.80;99.90;;;;;;5068755;28;19959;-84
2022/03/16 10:13:13;;;;;;;;;;;9.90;99.90;;;;;;5068501;28;20330;-84
2022/03/16 10:15:39;;;;;;;;;;;10.00;99.90;;;;;;5060509;28;19912;-84
2022/03/16 10:18:05;;;;;;;;;;;10.00;99.90;;;;;;5072223;28;19912;-84
2022/03/16 10:20:32;;;;;;;;;;;10.10;99.90;;;;;;5058215;28;19943;-85
2022/03/16 10:23:05;;;;;;;;;;;10.20;99.90;;;;;;5065819;28;20403;-84
2022/03/16 10:25:32;;;;;;;;;;;10.30;99.90;;;;;;5041550;28;19924;-84
2022/03/16 10:28:13;;;;;;;;;;;10.30;99.90;;;;;;5043458;28;19923;-84
2022/03/16 10:30:57;;;;;;;;;;;10.40;99.90;;;;;;5066939;28;19916;-84
2022/03/16 10:33:31;;;;;;;;;;;10.50;99.90;;;;;;5066503;28;19974;-84
2022/03/16 10:36:00;;;;;;;;;;;10.50;99.90;;;;;;5052465;28;19959;-84
2022/03/16 10:38:26;;;;;;;;;;;10.50;99.90;;;;;;5085073;23;20383;-81
2022/03/16 10:40:56;;;;;;;;;;;10.50;99.90;;;;;;5041459;28;19913;-81
2022/03/16 10:48:59;;;;;;;;;;;11.00;99.90;;;;;;5029264;28;19928;-81
2022/03/16 10:51:24;;;;;;;;;;;11.10;99.90;;;;;;5046981;28;19948;-81
2022/03/16 10:53:52;;;;;;;;;;;11.20;99.90;;;;;;5037211;28;19917;-81
2022/03/16 10:56:18;;;;;;;;;;;11.20;99.90;;;;;;5038957;28;20008;-81
2022/03/16 10:58:45;;;;;;;;;;;11.30;99.90;;;;;;5028011;28;19918;-82
2022/03/16 11:01:12;;;;;;;;;;;11.40;99.90;;;;;;5048489;28;19920;-81
2022/03/16 11:03:39;;;;;;;;;;;11.40;99.90;;;;;;5027760;28;19920;-81
2022/03/16 11:06:05;;;;;;;;;;;11.40;99.90;;;;;;5026836;28;20330;-81
2022/03/16 11:08:35;;;;;;;;;;;11.40;99.90;;;;;;5047866;28;19920;-81
2022/03/16 11:13:27;;;;;;;;;;;11.40;99.90;;;;;;5052532;28;20346;-81
2022/03/16 11:13:49;;;;;;;;;;;11.30;99.90;;;;;;5044259;28;20892;-80
2022/03/16 11:16:19;;;;;;;;;;;11.30;99.90;;;;;;5048879;28;19917;-81
2022/03/16 11:18:46;;;;;;;;;;;11.10;99.90;;;;;;5035017;28;19967;-81
2022/03/16 11:21:13;;;;;;;;;;;11.10;99.90;;;;;;5022403;28;19933;-81
2022/03/16 11:26:29;;;;;;;;;;;10.90;99.90;;;;;;5048500;28;19924;-81
2022/03/16 11:29:00;;;;;;;;;;;10.80;99.90;;;;;;5045615;28;19913;-81
2022/03/16 11:31:29;;;;;;;;;;;10.80;99.90;;;;;;5052376;28;19958;-81
2022/03/16 11:33:57;;;;;;;;;;;10.70;99.90;;;;;;5046022;28;19955;-81
2022/03/16 11:36:35;;;;;;;;;;;10.70;99.90;;;;;;5024457;28;19925;-81
2022/03/16 11:39:02;;;;;;;;;;;10.80;99.90;;;;;;5035909;28;19960;-82
2022/03/16 11:41:28;;;;;;;;;;;11.00;99.90;;;;;;5026944;28;19917;-81
2022/03/16 11:44:17;;;;;;;;;;;11.30;99.90;;;;;;5051593;28;20527;-81
2022/03/16 11:46:43;;;;;;;;;;;11.50;99.90;;;;;;5040777;28;19928;-81
2022/03/16 11:49:10;;;;;;;;;;;11.70;99.90;;;;;;5025379;28;20004;-81
2022/03/16 11:51:37;;;;;;;;;;;11.70;99.90;;;;;;5024752;28;20337;-81
2022/03/16 11:54:05;;;;;;;;;;;11.60;99.90;;;;;;5022007;28;20034;-82
2022/03/16 11:56:44;;;;;;;;;;;11.40;99.90;;;;;;5048902;28;19913;-81
2022/03/16 11:59:16;;;;;;;;;;;11.20;99.90;;;;;;5034855;28;19920;-81
2022/03/16 12:01:48;;;;;;;;;;;11.00;99.90;;;;;;5048921;28;19920;-82
2022/03/16 12:04:22;;;;;;;;;;;10.90;99.90;;;;;;5037789;28;19967;-81
2022/03/16 12:07:02;;;;;;;;;;;10.80;99.90;;;;;;5028417;28;20020;-81
2022/03/16 12:09:39;;;;;;;;;;;10.80;99.90;;;;;;5039084;28;20290;-81
2022/03/16 12:14:59;;;;;;;;;;;10.90;99.90;;;;;;5049116;28;19923;-81
2022/03/16 12:17:25;;;;;;;;;;;11.10;99.90;;;;;;5033955;28;20020;-81
2022/03/16 12:20:13;;;;;;;;;;;11.20;99.90;;;;;;5040707;28;19989;-81
2022/03/16 12:22:48;;;;;;;;;;;11.30;99.90;;;;;;5031607;28;19913;-81
2022/03/16 12:25:26;;;;;;;;;;;11.30;99.90;;;;;;5044643;28;19917;-81
2022/03/16 12:30:39;;;;;;;;;;;11.40;99.90;;;;;;5049848;28;19939;-83
2022/03/16 12:33:04;;;;;;;;;;;11.40;99.90;;;;;;5017634;28;19960;-82
2022/03/16 12:35:36;;;;;;;;;;;11.50;99.90;;;;;;5036576;28;19964;-81
2022/03/16 12:38:02;;;;;;;;;;;11.50;99.90;;;;;;5027253;28;20355;-82
2022/03/16 12:40:29;;;;;;;;;;;11.60;99.90;;;;;;5036358;28;19913;-81
2022/03/16 12:42:56;;;;;;;;;;;11.50;99.90;;;;;;5025537;28;19923;-81
2022/03/16 12:45:25;;;;;;;;;;;11.60;99.90;;;;;;5034946;28;19921;-81
2022/03/16 12:48:03;;;;;;;;;;;11.50;99.90;;;;;;5047635;28;19935;-81
2022/03/16 12:50:29;;;;;;;;;;;11.60;99.90;;;;;;5035586;28;20057;-81
2022/03/16 12:52:54;;;;;;;;;;;11.60;99.90;;;;;;5047662;28;20008;-81
2022/03/16 12:55:20;;;;;;;;;;;11.60;99.90;;;;;;5040632;28;19909;-80
2022/03/16 12:57:54;;;;;;;;;;;11.70;99.90;;;;;;5034980;28;19959;-81
2022/03/16 13:00:20;;;;;;;;;;;11.60;99.90;;;;;;5027454;28;19914;-80
2022/03/16 13:02:47;;;;;;;;;;;11.60;99.90;;;;;;5047807;28;19924;-81
2022/03/16 13:05:17;;;;;;;;;;;11.60;99.90;;;;;;5022134;28;19921;-82
2022/03/16 13:07:44;;;;;;;;;;;11.50;99.90;;;;;;5032189;28;19963;-81
2022/03/16 13:10:09;;;;;;;;;;;11.50;99.90;;;;;;5042734;28;19923;-81
2022/03/16 13:12:56;;;;;;;;;;;11.50;99.90;;;;;;5039920;28;20375;-81
2022/03/16 13:15:25;;;;;;;;;;;11.50;99.90;;;;;;5017648;28;19921;-81
2022/03/16 13:17:50;;;;;;;;;;;11.50;99.90;;;;;;5019926;28;20284;-81
2022/03/16 13:20:23;;;;;;;;;;;11.60;99.90;;;;;;5025561;28;19917;-81
2022/03/16 13:22:48;;;;;;;;;;;11.60;99.90;;;;;;5052237;28;19959;-81
2022/03/16 13:25:14;;;;;;;;;;;11.60;99.90;;;;;;5038561;28;19959;-81
2022/03/16 13:27:40;;;;;;;;;;;11.50;99.90;;;;;;5038507;28;20351;-81
2022/03/16 13:30:10;;;;;;;;;;;11.50;99.90;;;;;;5039135;28;19914;-82
2022/03/16 13:32:40;;;;;;;;;;;11.40;99.90;;;;;;5056356;28;20510;-81
2022/03/16 13:35:10;;;;;;;;;;;11.40;99.90;;;;;;5040116;28;20260;-81
2022/03/16 13:37:35;;;;;;;;;;;11.50;99.90;;;;;;5055492;28;19948;-81
2022/03/16 13:40:03;;;;;;;;;;;11.40;99.90;;;;;;5056556;28;20426;-81
2022/03/16 13:42:33;;;;;;;;;;;11.50;99.90;;;;;;5056396;28;19972;-81
2022/03/16 13:45:17;;;;;;;;;;;11.50;99.90;;;;;;5055461;28;20371;-81
2022/03/16 13:47:44;;;;;;;;;;;11.50;99.90;;;;;;5055685;28;19920;-81
2022/03/16 13:50:25;;;;;;;;;;;11.50;99.90;;;;;;5038738;28;19921;-81
2022/03/16 13:52:53;;;;;;;;;;;11.50;99.90;;;;;;5038407;28;19913;-81
2022/03/16 13:55:19;;;;;;;;;;;11.40;99.90;;;;;;5038308;28;20390;-81
2022/03/16 13:57:46;;;;;;;;;;;11.40;99.90;;;;;;5055383;28;19909;-81
2022/03/16 14:00:16;;;;;;;;;;;11.40;99.90;;;;;;5038779;28;19913;-81
2022/03/16 14:02:41;;;;;;;;;;;11.40;99.90;;;;;;5055013;28;20007;-81
2022/03/16 14:05:13;;;;;;;;;;;11.40;99.90;;;;;;5055255;28;20033;-81
2022/03/16 14:07:40;;;;;;;;;;;11.40;99.90;;;;;;5037916;28;20167;-81
2022/03/16 14:10:07;;;;;;;;;;;11.50;99.90;;;;;;5038593;28;20463;-81
2022/03/16 14:12:37;;;;;;;;;;;11.40;99.90;;;;;;5055349;28;20327;-81
2022/03/16 14:15:06;;;;;;;;;;;11.40;99.90;;;;;;5039291;28;19928;-82
2022/03/16 14:17:38;;;;;;;;;;;11.40;99.90;;;;;;5055384;28;19909;-81
2022/03/16 14:20:07;;;;;;;;;;;11.40;99.90;;;;;;5055272;28;20264;-81
2022/03/16 14:22:33;;;;;;;;;;;11.40;99.90;;;;;;5054817;28;19962;-81
2022/03/16 14:24:59;;;;;;;;;;;11.30;99.90;;;;;;5038538;28;19917;-82
2022/03/16 14:27:26;;;;;;;;;;;11.20;99.90;;;;;;5038275;28;19913;-81
2022/03/16 14:29:52;;;;;;;;;;;11.10;99.90;;;;;;5037839;28;19912;-81
2022/03/16 14:32:18;;;;;;;;;;;11.10;99.90;;;;;;5037968;28;20366;-81
2022/03/16 14:34:43;;;;;;;;;;;11.00;99.90;;;;;;5054862;28;19909;-82
2022/03/16 14:37:09;;;;;;;;;;;11.00;99.90;;;;;;5045256;28;20467;-83
2022/03/16 14:39:35;;;;;;;;;;;11.00;99.90;;;;;;5029391;28;19925;-82
2022/03/16 14:42:01;;;;;;;;;;;11.00;99.90;;;;;;5043612;28;20047;-80
2022/03/16 14:44:26;;;;;;;;;;;11.00;99.90;;;;;;5043915;28;19921;-81